Time;durP1;ratioP1;P1;durP2;ratioP2;P2;SDS_P1;SDS_P2;PMS_P1;PMS_P2;Temp;Humidity;BMP_temperature;BMP_pressure;BME280_temperature;BME280_humidity;BME280_pressure;Samples;Min_cycle;Max_cycle;Signal;HPM_P1;HPM_P2
2024/01/08 00:01:00;;;;;;;7.80;6.30;;;;;;;12.44;89.81;93081.75;5069986;28;20660;-64
2024/01/08 00:03:29;;;;;;;7.23;5.80;;;;;;;12.44;89.99;93078.38;5071444;28;20186;-67
2024/01/08 00:05:56;;;;;;;6.43;4.80;;;;;;;12.42;89.78;93075.22;5076187;28;20182;-70
2024/01/08 00:08:23;;;;;;;7.83;5.10;;;;;;;12.44;89.68;93079.19;5078619;28;20206;-69
2024/01/08 00:10:49;;;;;;;6.43;4.77;;;;;;;12.35;89.90;93072.63;5071468;28;20770;-67
2024/01/08 00:13:16;;;;;;;7.67;4.93;;;;;;;12.44;90.00;93079.19;5069812;28;20676;-64
2024/01/08 00:15:43;;;;;;;4.87;4.20;;;;;;;12.19;89.89;93042.16;5070129;28;20186;-66
2024/01/08 00:18:10;;;;;;;8.30;5.03;;;;;;;12.14;89.73;93039.38;5069536;28;20217;-69
2024/01/08 00:20:38;;;;;;;6.03;4.23;;;;;;;12.44;89.83;93089.44;5069166;28;20799;-70
2024/01/08 00:23:05;;;;;;;5.43;4.07;;;;;;;12.44;89.69;93086.88;5069624;28;20198;-65
2024/01/08 00:25:32;;;;;;;4.37;3.40;;;;;;;12.31;89.87;93068.84;5069219;28;20599;-68
2024/01/08 00:28:00;;;;;;;4.27;3.63;;;;;;;12.43;89.77;93095.50;5075196;28;20190;-66
2024/01/08 00:30:27;;;;;;;5.10;3.63;;;;;;;12.44;89.80;93096.34;5070434;28;20205;-69
2024/01/08 00:32:53;;;;;;;4.73;3.40;;;;;;;12.44;89.89;93097.13;5071379;28;20187;-69
2024/01/08 00:35:20;;;;;;;4.33;3.53;;;;;;;12.45;89.78;93095.34;5076728;28;20190;-65
2024/01/08 00:37:48;;;;;;;3.40;3.10;;;;;;;12.32;89.74;93079.88;5083922;28;20183;-65
2024/01/08 00:40:15;;;;;;;3.03;2.83;;;;;;;12.42;89.86;93101.63;5074723;28;20194;-68
2024/01/08 00:42:42;;;;;;;3.30;2.63;;;;;;;12.42;89.87;93103.41;5071648;28;20195;-69
2024/01/08 00:45:09;;;;;;;3.93;3.03;;;;;;;12.33;89.63;93092.50;5071083;28;20187;-72
2024/01/08 00:47:36;;;;;;;2.97;2.53;;;;;;;12.21;89.68;93073.50;5070324;28;20186;-68
2024/01/08 00:50:03;;;;;;;4.33;2.77;;;;;;;12.38;89.70;93102.19;5070333;28;20257;-68
2024/01/08 00:52:30;;;;;;;3.27;2.63;;;;;;;12.38;89.77;93108.09;5072557;28;20811;-68
2024/01/08 00:55:04;;;;;;;2.60;2.40;;;;;;;12.36;89.65;93104.94;5073105;28;20195;-70
2024/01/08 00:57:31;;;;;;;2.40;2.17;;;;;;;12.45;89.54;93116.66;5073349;28;20202;-67
2024/01/08 00:59:58;;;;;;;2.73;2.53;;;;;;;12.41;89.56;93114.66;5073291;28;20528;-69
2024/01/08 01:02:25;;;;;;;2.40;2.20;;;;;;;12.44;89.65;93117.63;5063833;28;20573;-66
2024/01/08 01:04:52;;;;;;;2.77;2.53;;;;;;;12.09;89.46;93070.69;5059129;28;20182;-69
2024/01/08 01:07:18;;;;;;;4.97;2.80;;;;;;;12.44;89.50;93130.44;5073389;28;20198;-65
2024/01/08 01:09:45;;;;;;;4.33;2.70;;;;;;;12.44;89.60;93127.09;5075263;28;20221;-69
2024/01/08 01:12:13;;;;;;;3.67;2.93;;;;;;;12.44;89.80;93133.00;5083447;28;20292;-69
2024/01/08 01:14:40;;;;;;;3.30;2.97;;;;;;;12.44;89.72;93133.00;5089082;28;20209;-68
2024/01/08 01:17:07;;;;;;;4.10;3.10;;;;;;;12.45;89.73;93133.81;5074788;28;20190;-67
2024/01/08 01:19:34;;;;;;;4.40;2.90;;;;;;;12.23;89.88;93105.66;5072745;28;20205;-69
2024/01/08 01:22:01;;;;;;;3.50;2.90;;;;;;;12.23;89.74;93105.66;5072436;28;20744;-64
2024/01/08 01:24:28;;;;;;;3.77;2.43;;;;;;;12.40;89.80;93128.44;5071864;28;20202;-65
2024/01/08 01:26:54;;;;;;;6.00;2.63;;;;;;;12.43;89.93;93138.31;5072406;28;20186;-63
2024/01/08 01:29:23;;;;;;;3.97;2.60;;;;;;;12.43;89.97;93138.31;5072008;28;20692;-70
2024/01/08 01:31:49;;;;;;;3.87;2.90;;;;;;;12.38;89.93;93138.88;5072344;28;20201;-69
2024/01/08 01:34:18;;;;;;;3.67;2.80;;;;;;;12.42;89.80;93145.22;5072151;28;20620;-69
2024/01/08 01:36:47;;;;;;;3.93;2.93;;;;;;;12.42;89.86;93146.97;5072483;28;20625;-68
2024/01/08 01:39:13;;;;;;;3.33;3.03;;;;;;;12.42;89.80;93141.84;5071922;28;20190;-65
2024/01/08 01:41:40;;;;;;;3.23;2.70;;;;;;;12.39;89.84;93140.47;5072298;28;20190;-69
2024/01/08 01:44:07;;;;;;;3.87;2.97;;;;;;;12.40;89.59;93142.06;5072176;28;20213;-69
2024/01/08 01:46:42;;;;;;;3.63;3.33;;;;;;;12.15;89.65;93105.00;5072236;28;20194;-67
2024/01/08 01:49:12;;;;;;;3.43;2.97;;;;;;;12.39;89.64;93145.59;5072144;28;20210;-68
2024/01/08 01:51:41;;;;;;;3.80;3.50;;;;;;;12.37;89.75;93147.53;5072140;28;20199;-67
2024/01/08 01:54:09;;;;;;;3.60;3.30;;;;;;;12.37;89.54;93150.09;5071687;28;20277;-67
2024/01/08 01:56:36;;;;;;;3.40;3.10;;;;;;;12.34;89.57;93147.13;5071325;28;20198;-70
2024/01/08 01:59:08;;;;;;;9.17;3.73;;;;;;;12.20;89.56;93125.72;5071938;28;20191;-69
2024/01/08 02:01:37;;;;;;;5.27;4.13;;;;;;;12.34;89.45;93152.25;5051863;28;20191;-70
2024/01/08 02:04:04;;;;;;;4.07;3.67;;;;;;;12.09;89.25;93116.81;5058586;28;20186;-69
2024/01/08 02:06:31;;;;;;;4.73;3.90;;;;;;;12.15;89.28;93131.41;5071157;28;20191;-68
2024/01/08 02:08:58;;;;;;;5.57;4.27;;;;;;;12.28;88.93;93153.78;5071499;28;20351;-69
2024/01/08 02:11:26;;;;;;;4.03;3.60;;;;;;;12.22;88.94;93146.84;5070778;28;20871;-69
2024/01/08 02:13:53;;;;;;;4.27;3.97;;;;;;;12.25;88.83;93159.28;5071681;28;20183;-69
2024/01/08 02:16:20;;;;;;;6.00;3.90;;;;;;;11.88;88.61;93106.56;5071513;28;20289;-67
2024/01/08 02:18:48;;;;;;;4.40;4.00;;;;;;;12.22;88.75;93163.03;5071612;28;20244;-66
2024/01/08 02:21:15;;;;;;;4.20;3.80;;;;;;;12.21;88.66;93163.97;5071281;28;20195;-71
2024/01/08 02:23:44;;;;;;;4.23;3.53;;;;;;;12.19;88.57;93160.81;5071072;28;20576;-69
2024/01/08 02:26:13;;;;;;;4.10;3.70;;;;;;;12.12;88.52;93162.53;5070757;28;20292;-68
2024/01/08 02:28:40;;;;;;;5.03;4.20;;;;;;;12.08;88.42;93160.53;5071388;28;20620;-66
2024/01/08 02:31:07;;;;;;;4.17;3.77;;;;;;;12.16;88.37;93171.44;5070855;28;20650;-68
2024/01/08 02:33:34;;;;;;;4.17;3.50;;;;;;;12.15;88.45;93174.97;5071262;28;20687;-65
2024/01/08 02:36:02;;;;;;;4.20;3.57;;;;;;;9.75;88.09;92797.59;5070782;28;20200;-67
2024/01/08 02:38:28;;;;;;;4.13;3.70;;;;;;;12.15;88.61;93176.75;5071451;28;20210;-62
2024/01/08 02:40:57;;;;;;;3.87;3.57;;;;;;;12.14;88.72;93177.75;5071669;28;20198;-64
2024/01/08 02:43:24;;;;;;;4.10;3.70;;;;;;;12.12;88.54;93180.47;5070208;28;20183;-64
2024/01/08 02:45:51;;;;;;;4.77;4.27;;;;;;;11.80;88.59;93133.84;5070944;28;20194;-63
2024/01/08 02:48:18;;;;;;;4.23;3.30;;;;;;;12.05;88.64;93179.63;5070587;28;20190;-65
2024/01/08 02:50:45;;;;;;;4.93;3.40;;;;;;;12.05;88.52;93180.44;5070525;28;20332;-62
2024/01/08 02:53:12;;;;;;;3.80;3.50;;;;;;;12.07;88.52;93182.00;5070309;28;20217;-63
2024/01/08 02:55:39;;;;;;;5.73;3.10;;;;;;;12.09;88.72;93187.72;5070389;28;20350;-62
2024/01/08 02:58:08;;;;;;;3.73;3.30;;;;;;;12.09;88.82;93195.41;5070226;28;20837;-63
2024/01/08 03:00:35;;;;;;;3.73;3.33;;;;;;;11.89;88.64;93169.63;5070782;28;20198;-67
2024/01/08 03:03:01;;;;;;;3.53;3.10;;;;;;;11.88;88.66;93168.84;5069981;28;20190;-64
2024/01/08 03:05:28;;;;;;;3.80;3.13;;;;;;;12.08;88.82;93204.06;5069045;28;20239;-65
2024/01/08 03:07:55;;;;;;;3.17;2.87;;;;;;;12.06;88.69;93204.28;5070446;28;20209;-67
2024/01/08 03:10:22;;;;;;;3.27;2.97;;;;;;;11.73;88.82;93161.16;5070400;28;20248;-62
2024/01/08 03:12:48;;;;;;;3.43;2.97;;;;;;;12.02;88.82;93201.28;5070303;28;20259;-62
2024/01/08 03:15:17;;;;;;;3.40;3.03;;;;;;;12.06;88.63;93214.53;5070495;28;20201;-67
2024/01/08 03:17:43;;;;;;;2.70;2.50;;;;;;;12.07;88.57;93216.09;5071093;28;20217;-61
2024/01/08 03:20:12;;;;;;;2.80;2.60;;;;;;;12.00;88.67;93213.50;5074444;28;20214;-62
2024/01/08 03:22:39;;;;;;;3.00;2.70;;;;;;;11.91;88.50;93200.97;5071022;28;20552;-62
2024/01/08 03:25:06;;;;;;;3.20;2.90;;;;;;;11.69;88.51;93162.50;5070823;28;20187;-67
2024/01/08 03:27:33;;;;;;;2.93;2.73;;;;;;;12.04;88.56;93224.94;5070602;28;20190;-63
2024/01/08 03:30:00;;;;;;;3.07;2.83;;;;;;;12.04;88.59;93231.81;5070501;28;20269;-66
2024/01/08 03:32:28;;;;;;;2.73;2.53;;;;;;;11.72;88.50;93184.41;5070070;28;20661;-66
2024/01/08 03:34:55;;;;;;;2.40;2.17;;;;;;;12.02;88.63;93228.66;5069625;28;20187;-62
2024/01/08 03:37:21;;;;;;;2.80;2.60;;;;;;;12.01;88.36;93233.00;5069612;28;20190;-66
2024/01/08 03:39:48;;;;;;;2.77;2.57;;;;;;;12.01;88.58;93243.25;5069813;28;20197;-65
2024/01/08 03:42:15;;;;;;;2.70;2.50;;;;;;;12.01;88.36;93245.03;5070087;28;20237;-64
2024/01/08 03:44:42;;;;;;;3.07;2.77;;;;;;;11.94;88.38;93237.25;5069949;28;20716;-63
2024/01/08 03:47:10;;;;;;;3.10;2.80;;;;;;;11.91;88.34;93242.72;5070030;28;20551;-64
2024/01/08 03:49:38;;;;;;;3.00;2.70;;;;;;;11.99;88.39;93252.06;5069506;28;20540;-66
2024/01/08 03:52:05;;;;;;;2.90;2.70;;;;;;;11.97;88.35;93257.41;5069667;28;20197;-66
2024/01/08 03:54:32;;;;;;;2.87;2.63;;;;;;;11.96;88.24;93263.50;5069606;28;20307;-66
2024/01/08 03:56:59;;;;;;;2.90;2.60;;;;;;;11.97;88.25;93261.72;5069780;28;20190;-70
2024/01/08 03:59:26;;;;;;;4.00;2.90;;;;;;;11.96;88.39;93265.25;5070387;28;20554;-65
2024/01/08 04:01:53;;;;;;;3.00;2.70;;;;;;;11.95;88.29;93267.00;5072073;28;20269;-68
2024/01/08 04:04:21;;;;;;;2.97;2.77;;;;;;;11.93;88.29;93270.75;5070025;28;20580;-70
2024/01/08 04:06:49;;;;;;;4.10;2.87;;;;;;;11.94;88.54;93273.13;5069463;28;20198;-70
2024/01/08 04:09:17;;;;;;;4.23;2.90;;;;;;;11.94;88.49;93277.44;5069191;28;20538;-70
2024/01/08 04:11:44;;;;;;;3.60;3.30;;;;;;;11.91;88.33;93278.59;5069235;28;20980;-66
2024/01/08 04:14:12;;;;;;;3.00;2.80;;;;;;;11.87;88.47;93271.44;5069449;28;20561;-63
2024/01/08 04:16:38;;;;;;;3.30;3.00;;;;;;;11.62;88.35;93243.59;5069359;28;20186;-68
2024/01/08 04:19:05;;;;;;;3.27;2.97;;;;;;;11.92;88.47;93294.78;5070002;28;20641;-70
2024/01/08 04:21:32;;;;;;;4.17;3.80;;;;;;;11.79;88.39;93274.91;5069664;28;20201;-71
2024/01/08 04:24:00;;;;;;;3.37;3.07;;;;;;;11.90;88.23;93289.03;5069280;28;20191;-69
2024/01/08 04:26:27;;;;;;;3.30;3.00;;;;;;;11.89;88.28;93295.13;5069063;28;20194;-67
2024/01/08 04:28:54;;;;;;;3.30;3.00;;;;;;;11.88;87.88;93294.34;5073523;28;20193;-70
2024/01/08 04:31:21;;;;;;;4.03;3.63;;;;;;;11.69;87.87;93276.94;5073569;28;20225;-70
2024/01/08 04:33:49;;;;;;;3.53;3.20;;;;;;;11.69;87.70;93282.84;5073142;28;20672;-67
2024/01/08 04:36:16;;;;;;;4.13;3.73;;;;;;;11.82;87.57;93310.38;5072996;28;20278;-67
2024/01/08 04:38:44;;;;;;;4.00;3.60;;;;;;;11.79;87.54;93318.44;5072956;28;20194;-66
2024/01/08 04:41:18;;;;;;;3.73;3.33;;;;;;;11.77;87.55;93313.47;5073629;28;20284;-65
2024/01/08 04:43:45;;;;;;;4.23;3.30;;;;;;;11.74;87.23;93325.84;5073354;28;20681;-69
2024/01/08 04:46:12;;;;;;;3.60;3.30;;;;;;;11.73;87.29;93334.50;5073129;28;20248;-67
2024/01/08 04:48:39;;;;;;;3.80;3.40;;;;;;;11.71;87.14;93339.81;5073035;28;20549;-67
2024/01/08 04:51:06;;;;;;;3.47;3.17;;;;;;;11.66;87.20;93339.56;5074110;28;20274;-70
2024/01/08 04:53:34;;;;;;;3.90;3.50;;;;;;;11.68;86.94;93349.63;5072539;28;20193;-70
2024/01/08 04:56:01;;;;;;;4.03;3.23;;;;;;;11.36;87.08;93310.59;5072817;28;20225;-67
2024/01/08 04:58:30;;;;;;;4.07;3.03;;;;;;;11.63;86.89;93355.25;5072292;28;20673;-68
2024/01/08 05:00:57;;;;;;;3.47;3.17;;;;;;;11.61;86.78;93358.97;5073469;28;20282;-70
2024/01/08 05:03:23;;;;;;;3.33;3.07;;;;;;;11.59;86.74;93368.59;5072375;28;20186;-70
2024/01/08 05:05:50;;;;;;;3.20;2.90;;;;;;;11.54;86.60;93369.91;5072210;28;20186;-67
2024/01/08 05:08:17;;;;;;;3.30;3.00;;;;;;;11.55;86.73;93379.19;5072348;28;20285;-68
2024/01/08 05:10:44;;;;;;;2.50;2.30;;;;;;;11.53;86.46;93386.25;5072281;28;20237;-68
2024/01/08 05:13:10;;;;;;;2.83;2.63;;;;;;;11.51;86.26;93384.84;5072429;28;20187;-65
2024/01/08 05:15:38;;;;;;;2.37;2.17;;;;;;;11.48;86.17;93391.09;5071929;28;20182;-70
2024/01/08 05:18:05;;;;;;;2.17;2.00;;;;;;;11.46;86.14;93393.03;5072262;28;20277;-69
2024/01/08 05:20:32;;;;;;;2.20;2.10;;;;;;;11.24;85.95;93369.09;5072034;28;20193;-68
2024/01/08 05:22:58;;;;;;;2.13;2.00;;;;;;;11.42;85.67;93408.94;5072372;28;21554;-69
2024/01/08 05:25:25;;;;;;;2.20;2.00;;;;;;;11.38;85.31;93411.03;5072082;28;20186;-70
2024/01/08 05:27:52;;;;;;;2.00;1.90;;;;;;;11.34;85.45;93409.00;5072516;28;20187;-70
2024/01/08 05:30:18;;;;;;;1.90;1.80;;;;;;;11.35;85.33;93415.69;5072379;28;20581;-69
2024/01/08 05:32:50;;;;;;;2.20;1.80;;;;;;;11.32;85.21;93421.19;5073155;28;20281;-70
2024/01/08 05:35:17;;;;;;;1.80;1.70;;;;;;;11.29;85.20;93423.09;5072268;28;20277;-69
2024/01/08 05:37:44;;;;;;;2.50;2.07;;;;;;;11.19;85.01;93414.09;5072599;28;20225;-70
2024/01/08 05:40:12;;;;;;;1.90;1.80;;;;;;;11.18;85.03;93417.59;5073115;28;20190;-69
2024/01/08 05:42:39;;;;;;;2.30;2.10;;;;;;;11.23;85.02;93436.59;5073650;28;20194;-68
2024/01/08 05:45:07;;;;;;;2.27;2.07;;;;;;;11.21;84.97;93446.19;5084471;28;20280;-65
2024/01/08 05:47:34;;;;;;;2.10;1.90;;;;;;;11.13;84.99;93436.03;5092753;28;20193;-68
2024/01/08 05:50:04;;;;;;;2.10;1.97;;;;;;;10.59;84.63;93356.84;5086301;28;20229;-65
2024/01/08 05:52:31;;;;;;;2.37;2.17;;;;;;;11.13;84.56;93443.69;5072286;28;20632;-71
2024/01/08 05:54:58;;;;;;;2.53;2.33;;;;;;;11.20;83.92;93461.72;5072337;28;20204;-69
2024/01/08 05:57:26;;;;;;;2.57;2.37;;;;;;;11.13;83.64;93468.50;5072176;28;20190;-70
2024/01/08 05:59:53;;;;;;;2.63;2.30;;;;;;;11.05;83.52;93469.34;5079227;28;20194;-68
2024/01/08 06:02:20;;;;;;;2.37;2.17;;;;;;;10.96;83.55;93460.13;5085922;28;20186;-65
2024/01/08 06:04:46;;;;;;;2.83;2.20;;;;;;;10.98;nan;93476.91;5084349;28;20194;-71
2024/01/08 06:07:14;;;;;;;3.17;2.77;;;;;;;11.11;97.69;93471.22;5075154;28;20202;-63
2024/01/08 06:09:41;;;;;;;3.00;2.03;;;;;;;11.48;100.00;93460.19;5073050;28;20206;-62
2024/01/08 06:12:08;;;;;;;5.07;2.60;;;;;;;11.70;100.00;93456.03;5071216;28;20238;-64
2024/01/08 06:14:38;;;;;;;7.13;2.43;;;;;;;11.83;96.53;93475.13;5071338;28;20194;-63
2024/01/08 06:17:05;;;;;;;1.90;1.80;;;;;;;11.89;93.40;93494.94;5071386;28;20210;-65
2024/01/08 06:19:32;;;;;;;2.33;2.13;;;;;;;11.84;91.90;93503.16;5071431;28;20187;-65
2024/01/08 06:22:00;;;;;;;2.50;2.30;;;;;;;11.77;91.11;93505.56;5071297;28;20186;-66
2024/01/08 06:24:28;;;;;;;18.80;2.43;;;;;;;11.55;90.33;93479.03;5071080;28;20222;-64
2024/01/08 06:26:55;;;;;;;2.13;2.03;;;;;;;11.66;89.52;93508.56;5070570;28;20190;-65
2024/01/08 06:29:24;;;;;;;2.30;2.10;;;;;;;11.61;89.34;93515.94;5071360;28;20205;-66
2024/01/08 06:31:51;;;;;;;4.63;2.03;;;;;;;11.54;88.89;93520.97;5071184;28;20688;-64
2024/01/08 06:34:18;;;;;;;2.43;2.23;;;;;;;11.46;88.78;93526.16;5070821;28;20685;-63
2024/01/08 06:36:45;;;;;;;3.80;2.30;;;;;;;11.30;88.41;93518.59;5070973;28;20533;-68
2024/01/08 06:39:12;;;;;;;2.47;2.07;;;;;;;11.40;88.45;93537.09;5070988;28;20191;-67
2024/01/08 06:41:40;;;;;;;2.50;2.30;;;;;;;11.37;88.07;93539.19;5071147;28;20584;-67
2024/01/08 06:44:07;;;;;;;2.00;1.90;;;;;;;11.33;87.80;93545.63;5071009;28;20183;-69
2024/01/08 06:46:33;;;;;;;2.67;2.23;;;;;;;11.28;87.80;93554.59;5070623;28;20199;-67
2024/01/08 06:49:00;;;;;;;3.10;2.40;;;;;;;11.24;87.64;93555.91;5070436;28;20201;-69
2024/01/08 06:51:27;;;;;;;2.77;2.23;;;;;;;11.21;87.24;93569.03;5069945;28;20232;-64
2024/01/08 06:53:54;;;;;;;2.27;2.17;;;;;;;11.03;87.28;93540.34;5070706;28;20669;-67
2024/01/08 06:56:21;;;;;;;2.03;1.90;;;;;;;11.16;86.85;93578.19;5070959;28;20194;-69
2024/01/08 06:58:49;;;;;;;3.67;2.37;;;;;;;11.14;86.63;93580.09;5070772;28;20199;-70
2024/01/08 07:01:16;;;;;;;2.50;2.27;;;;;;;11.10;86.59;93586.53;5070067;28;20190;-64
2024/01/08 07:03:44;;;;;;;3.37;2.37;;;;;;;11.09;86.30;93590.03;5069961;28;20277;-66
2024/01/08 07:06:11;;;;;;;3.23;2.10;;;;;;;11.04;85.97;93593.91;5070267;28;20273;-68
2024/01/08 07:08:38;;;;;;;2.80;2.57;;;;;;;11.04;86.00;93598.22;5070489;28;20198;-70
2024/01/08 07:11:05;;;;;;;2.43;2.23;;;;;;;11.00;85.74;93604.63;5070293;28;20241;-63
2024/01/08 07:13:31;;;;;;;2.40;2.20;;;;;;;10.99;85.76;93610.72;5061386;28;20202;-70
2024/01/08 07:15:59;;;;;;;2.43;2.23;;;;;;;10.97;85.56;93621.13;5067615;28;20210;-67
2024/01/08 07:18:26;;;;;;;4.43;2.43;;;;;;;10.82;85.50;93602.31;5069406;28;20182;-67
2024/01/08 07:20:53;;;;;;;3.43;2.40;;;;;;;10.92;85.23;93625.91;5069060;28;20191;-69
2024/01/08 07:23:20;;;;;;;2.43;2.30;;;;;;;10.91;84.85;93633.78;5068485;28;20565;-68
2024/01/08 07:25:46;;;;;;;3.40;2.43;;;;;;;10.89;84.93;93639.06;5068813;28;20197;-65
2024/01/08 07:28:15;;;;;;;2.53;2.23;;;;;;;10.88;84.59;93639.19;5068946;28;20649;-68
2024/01/08 07:30:42;;;;;;;2.20;2.10;;;;;;;10.66;84.49;93615.94;5069290;28;20210;-64
2024/01/08 07:33:11;;;;;;;2.90;2.60;;;;;;;10.86;84.35;93657.28;5069281;28;20209;-65
2024/01/08 07:35:37;;;;;;;5.23;2.50;;;;;;;10.84;84.52;93664.34;5068064;28;20622;-66
2024/01/08 07:38:04;;;;;;;4.23;2.83;;;;;;;10.82;84.15;93661.13;5068946;28;20198;-64
2024/01/08 07:40:31;;;;;;;2.23;2.10;;;;;;;10.82;83.96;93670.56;5068017;28;20213;-66
2024/01/08 07:42:58;;;;;;;2.30;2.20;;;;;;;10.63;83.68;93652.09;5069277;28;20194;-69
2024/01/08 07:45:27;;;;;;;2.80;2.60;;;;;;;10.78;83.37;93681.13;5070591;28;20190;-69
2024/01/08 07:47:54;;;;;;;3.40;2.30;;;;;;;10.77;83.70;93681.28;5069207;28;20205;-63
2024/01/08 07:50:22;;;;;;;3.30;2.37;;;;;;;10.76;83.33;93690.72;5069101;28;20229;-69
2024/01/08 07:52:52;;;;;;;1.90;1.80;;;;;;;10.74;83.36;93690.06;5069058;28;20617;-66
2024/01/08 07:55:20;;;;;;;2.40;2.20;;;;;;;10.66;83.13;93684.19;5069235;28;20198;-69
2024/01/08 07:57:47;;;;;;;2.40;2.20;;;;;;;10.70;82.96;93688.81;5068323;28;20190;-69
2024/01/08 08:00:15;;;;;;;2.20;2.03;;;;;;;10.75;82.74;93693.41;5068684;28;20571;-65
2024/01/08 08:02:42;;;;;;;2.50;2.30;;;;;;;10.52;82.61;93666.00;5070840;28;20221;-70
2024/01/08 08:05:09;;;;;;;2.03;1.93;;;;;;;10.76;82.26;93707.81;5073556;28;20190;-65
2024/01/08 08:07:38;;;;;;;2.60;2.40;;;;;;;10.78;82.38;93711.81;5068362;28;20197;-69
2024/01/08 08:10:06;;;;;;;2.70;1.93;;;;;;;10.79;82.09;93710.88;5069349;28;20281;-66
2024/01/08 08:12:32;;;;;;;2.87;2.67;;;;;;;10.80;81.84;93716.78;5068089;28;20238;-64
2024/01/08 08:14:59;;;;;;;2.30;2.10;;;;;;;10.82;81.61;93724.28;5068914;28;20201;-66
2024/01/08 08:17:27;;;;;;;2.50;2.30;;;;;;;10.21;81.37;93632.63;5068116;28;20197;-69
2024/01/08 08:19:54;;;;;;;2.77;2.53;;;;;;;10.52;81.20;93683.88;5068754;28;20202;-65
2024/01/08 08:22:21;;;;;;;2.57;2.37;;;;;;;10.72;81.32;93719.34;5068643;28;20210;-65
2024/01/08 08:24:49;;;;;;;2.73;2.40;;;;;;;10.82;81.38;93737.06;5068585;28;20193;-68
2024/01/08 08:27:16;;;;;;;2.37;2.17;;;;;;;10.82;81.15;93747.28;5068533;28;20194;-70
2024/01/08 08:29:45;;;;;;;2.60;2.30;;;;;;;10.79;80.63;93749.22;5068237;28;20186;-67
2024/01/08 08:32:12;;;;;;;4.73;2.70;;;;;;;10.78;80.41;93755.28;5068843;28;20210;-69
2024/01/08 08:34:40;;;;;;;2.20;2.00;;;;;;;10.70;80.39;93742.50;5067874;28;20217;-65
2024/01/08 08:37:08;;;;;;;2.20;2.10;;;;;;;10.75;80.23;93753.06;5070395;28;20233;-65
2024/01/08 08:39:35;;;;;;;2.80;2.57;;;;;;;10.71;80.13;93749.22;5070851;28;20243;-68
2024/01/08 08:42:04;;;;;;;3.27;2.83;;;;;;;10.77;80.10;93763.91;5069875;28;20254;-70
2024/01/08 08:44:30;;;;;;;2.50;2.23;;;;;;;10.78;79.81;93757.84;5070396;28;20300;-62
2024/01/08 08:46:59;;;;;;;2.07;1.97;;;;;;;10.50;79.90;93719.03;5075545;28;20194;-65
2024/01/08 08:49:26;;;;;;;2.40;2.30;;;;;;;10.77;79.50;93769.03;5070002;28;20190;-65
2024/01/08 08:51:53;;;;;;;2.50;2.30;;;;;;;10.77;79.47;93773.34;5068491;28;20229;-68
2024/01/08 08:54:19;;;;;;;2.43;2.23;;;;;;;10.77;79.36;93770.78;5067922;28;20194;-67
2024/01/08 08:56:46;;;;;;;2.30;2.20;;;;;;;10.77;79.12;93781.81;5068334;28;20191;-67
2024/01/08 08:59:14;;;;;;;2.37;2.10;;;;;;;10.77;79.09;93775.91;5067635;28;20658;-68
2024/01/08 09:01:41;;;;;;;2.30;2.10;;;;;;;10.47;78.95;93728.78;5067652;28;20182;-65
2024/01/08 09:04:08;;;;;;;2.20;2.00;;;;;;;10.62;78.91;93751.94;5067651;28;20182;-63
2024/01/08 09:06:35;;;;;;;2.70;2.50;;;;;;;10.79;78.63;93786.75;5068342;28;20187;-68
2024/01/08 09:09:02;;;;;;;2.60;2.40;;;;;;;10.80;78.54;93780.69;5067653;28;20197;-67
2024/01/08 09:11:29;;;;;;;2.40;2.20;;;;;;;10.82;78.40;93783.88;5067571;28;20307;-68
2024/01/08 09:13:56;;;;;;;2.70;2.50;;;;;;;10.83;78.33;93782.13;5070001;28;20194;-65
2024/01/08 09:16:26;;;;;;;2.40;2.30;;;;;;;10.84;78.22;93792.22;5071240;28;20202;-67
2024/01/08 09:18:52;;;;;;;2.23;2.10;;;;;;;10.59;78.17;93745.41;5071725;28;20190;-69
2024/01/08 09:21:19;;;;;;;2.47;2.27;;;;;;;10.76;77.76;93776.88;5071706;28;20190;-70
2024/01/08 09:23:46;;;;;;;2.20;2.10;;;;;;;10.90;77.63;93794.09;5071088;28;20191;-68
2024/01/08 09:26:13;;;;;;;2.17;2.07;;;;;;;10.91;77.50;93789.78;5071371;28;20185;-63
2024/01/08 09:28:40;;;;;;;2.70;2.37;;;;;;;10.92;77.05;93792.16;5069732;28;20203;-67
2024/01/08 09:31:07;;;;;;;2.43;2.23;;;;;;;10.96;77.11;93790.09;5071348;28;20263;-68
2024/01/08 09:33:35;;;;;;;2.30;2.20;;;;;;;10.99;76.97;93793.13;5071087;28;20186;-62
2024/01/08 09:36:02;;;;;;;2.37;2.17;;;;;;;10.90;76.73;93775.41;5071974;28;20203;-68
2024/01/08 09:38:29;;;;;;;2.57;2.37;;;;;;;11.04;76.53;93796.00;5070880;28;20734;-63
2024/01/08 09:40:56;;;;;;;2.03;1.93;;;;;;;11.07;76.53;93800.00;5071831;28;20190;-69
2024/01/08 09:43:24;;;;;;;2.23;1.90;;;;;;;11.09;76.44;93802.38;5071352;28;20202;-67
2024/01/08 09:46:02;;;;;;;2.60;2.20;;;;;;;11.11;76.28;93800.47;5071496;28;20195;-67
2024/01/08 09:48:29;;;;;;;2.37;2.17;;;;;;;11.12;76.15;93802.88;5068825;28;20198;-62
2024/01/08 09:50:59;;;;;;;2.30;2.10;;;;;;;11.11;76.05;93793.59;5068762;28;20240;-64
2024/01/08 09:53:28;;;;;;;2.60;2.40;;;;;;;11.17;75.80;93805.72;5070576;28;20267;-65
2024/01/08 09:55:55;;;;;;;2.50;2.30;;;;;;;11.20;75.85;93804.63;5071173;28;20186;-67
2024/01/08 09:58:22;;;;;;;2.47;2.27;;;;;;;11.10;75.71;93783.53;5070818;28;20657;-65
2024/01/08 10:00:49;;;;;;;2.50;2.30;;;;;;;11.25;75.50;93810.03;5071910;28;20190;-66
2024/01/08 10:03:15;;;;;;;2.33;2.23;;;;;;;11.24;75.50;93806.69;5073358;28;20218;-67
2024/01/08 10:05:42;;;;;;;2.40;2.20;;;;;;;11.25;75.41;93805.72;5073029;28;20554;-67
2024/01/08 10:08:11;;;;;;;3.00;2.47;;;;;;;11.25;75.14;93807.47;5073608;28;20205;-64
2024/01/08 10:10:40;;;;;;;2.70;2.50;;;;;;;11.09;75.17;93781.91;5080397;28;20233;-63
2024/01/08 10:13:10;;;;;;;2.67;2.47;;;;;;;11.07;74.93;93778.75;5072616;28;20214;-63
2024/01/08 10:15:37;;;;;;;2.57;2.37;;;;;;;11.26;74.77;93807.31;5070317;28;20282;-68
2024/01/08 10:18:08;;;;;;;2.70;2.50;;;;;;;11.07;74.95;93773.63;5070266;28;20646;-66
2024/01/08 10:20:35;;;;;;;3.60;2.40;;;;;;;11.17;74.87;93797.25;5071124;28;20645;-65
2024/01/08 10:23:06;;;;;;;2.70;2.50;;;;;;;11.27;74.67;93805.56;5070079;28;20189;-66
2024/01/08 10:25:36;;;;;;;2.80;2.40;;;;;;;11.26;74.27;93809.88;5069570;28;20190;-66
2024/01/08 10:28:03;;;;;;;2.60;2.40;;;;;;;11.25;74.21;93813.41;5070661;28;20197;-65
2024/01/08 10:30:30;;;;;;;2.63;2.40;;;;;;;11.23;74.14;93807.66;5069087;28;20209;-63
2024/01/08 10:33:00;;;;;;;3.77;2.60;;;;;;;11.23;74.10;93802.53;5069750;28;20226;-66
2024/01/08 10:35:29;;;;;;;2.60;2.40;;;;;;;11.23;74.13;93817.09;5069349;28;20190;-64
2024/01/08 10:37:59;;;;;;;3.63;2.70;;;;;;;11.17;74.32;93802.38;5069499;28;20186;-70
2024/01/08 10:40:26;;;;;;;2.60;2.40;;;;;;;11.10;74.17;93784.34;5070357;28;20201;-68
2024/01/08 10:42:55;;;;;;;4.13;2.77;;;;;;;11.29;74.07;93808.75;5069960;28;20217;-63
2024/01/08 10:45:23;;;;;;;3.10;2.67;;;;;;;11.32;73.94;93821.22;5069587;28;20199;-67
2024/01/08 10:47:52;;;;;;;2.60;2.40;;;;;;;11.29;74.08;93811.31;5069791;28;20185;-65
2024/01/08 10:50:20;;;;;;;2.60;2.40;;;;;;;11.18;73.87;93789.44;5070049;28;20657;-68
2024/01/08 10:52:53;;;;;;;3.57;2.60;;;;;;;11.03;73.37;93760.34;5069780;28;20214;-70
2024/01/08 10:55:22;;;;;;;3.90;2.53;;;;;;;11.31;73.16;93799.13;5069738;28;20226;-69
2024/01/08 10:57:59;;;;;;;2.83;2.63;;;;;;;11.21;73.21;93778.84;5069777;28;20733;-69
2024/01/08 11:00:27;;;;;;;3.10;2.80;;;;;;;11.47;72.95;93819.56;5069553;28;20194;-69
2024/01/08 11:02:55;;;;;;;2.87;2.67;;;;;;;11.17;72.98;93761.44;5068954;28;20190;-68
2024/01/08 11:05:22;;;;;;;2.73;2.53;;;;;;;11.58;72.88;93815.09;5070221;28;20205;-67
2024/01/08 11:07:51;;;;;;;2.33;2.20;;;;;;;11.61;72.66;93820.66;5069435;28;20197;-68
2024/01/08 11:10:19;;;;;;;2.80;2.60;;;;;;;11.61;72.32;93818.09;5069178;28;20222;-67
2024/01/08 11:12:54;;;;;;;2.53;2.33;;;;;;;11.67;72.57;93830.25;5068145;28;20312;-66
2024/01/08 11:15:25;;;;;;;2.77;2.57;;;;;;;11.66;72.30;93828.66;5068781;28;20239;-70
2024/01/08 11:17:53;;;;;;;2.77;2.40;;;;;;;11.70;72.44;93826.53;5068997;28;20213;-68
2024/01/08 11:20:42;;;;;;;2.70;2.50;;;;;;;11.18;72.27;93747.66;5069092;28;20650;-68
2024/01/08 11:23:36;;;;;;;3.03;2.73;;;;;;;11.72;72.15;93837.44;5068559;28;20649;-66
2024/01/08 11:26:05;;;;;;;2.97;2.63;;;;;;;11.72;71.90;93834.88;5069087;28;20311;-67
2024/01/08 11:28:34;;;;;;;4.70;2.60;;;;;;;11.71;71.99;93839.19;5069159;28;20194;-66
2024/01/08 11:31:42;;;;;;;2.80;2.53;;;;;;;11.69;71.85;93836.00;5069066;28;20731;-63
2024/01/08 11:34:50;;;;;;;4.47;2.67;;;;;;;11.70;71.75;93834.22;5066335;28;20194;-67
2024/01/08 11:37:30;;;;;;;3.17;2.87;;;;;;;11.44;71.64;93803.75;5066627;28;20191;-67